Time;durP1;ratioP1;P1;durP2;ratioP2;P2;SDS_P1;SDS_P2;PMS_P1;PMS_P2;Temp;Humidity;BMP_temperature;BMP_pressure;BME280_temperature;BME280_humidity;BME280_pressure;Samples;Min_cycle;Max_cycle;Signal;HPM_P1;HPM_P2
2022/01/25 00:32:15;;;;;;;5.97;4.57;;;;;;;;;;12544213;28;20562;-75
2022/01/25 00:38:16;;;;;;;6.20;5.60;;;;;;;;;;12542768;28;20025;-74
2022/01/25 00:44:18;;;;;;;5.65;5.15;;;;;;;;;;12543993;28;20040;-75
2022/01/25 00:50:22;;;;;;;5.88;5.38;;;;;;;;;;12543403;28;20049;-75
2022/01/25 00:56:35;;;;;;;5.25;4.78;;;;;;;;;;12543940;28;20478;-75
2022/01/25 01:02:36;;;;;;;5.00;4.60;;;;;;;;;;12543650;28;20032;-75
2022/01/25 01:08:39;;;;;;;5.03;4.63;;;;;;;;;;12525609;28;20048;-75
2022/01/25 01:14:57;;;;;;;;;;;;;;;;;;12542616;28;20039;-75
2022/01/25 01:52:27;;;;;;;4.88;4.47;;;;;;;;;;12551395;28;20040;-75
2022/01/25 01:58:29;;;;;;;5.50;4.93;;;;;;;;;;12550233;28;20040;-75
2022/01/25 02:04:31;;;;;;;5.95;5.45;;;;;;;;;;12550941;28;20039;-75
2022/01/25 02:10:33;;;;;;;5.85;5.35;;;;;;;;;;12549555;28;20049;-75
2022/01/25 02:17:02;;;;;;;4.93;4.53;;;;;;;;;;12550775;28;20040;-75
2022/01/25 02:23:21;;;;;;;5.00;4.60;;;;;;;;;;12549123;28;20048;-75
2022/01/25 02:29:23;;;;;;;5.00;4.60;;;;;;;;;;12548837;28;20048;-75
2022/01/25 02:35:24;;;;;;;5.13;4.72;;;;;;;;;;12549659;28;20041;-75
2022/01/25 02:41:26;;;;;;;5.32;4.93;;;;;;;;;;12549392;28;20107;-75
2022/01/25 02:53:48;;;;;;;6.15;5.65;;;;;;;;;;12548905;28;20037;-75
2022/01/25 02:59:50;;;;;;;6.63;6.03;;;;;;;;;;12530743;28;20029;-75
2022/01/25 03:05:52;;;;;;;6.05;5.55;;;;;;;;;;12531267;28;20071;-74
2022/01/25 03:11:55;;;;;;;5.85;5.32;;;;;;;;;;12547817;28;20417;-74
2022/01/25 03:18:01;;;;;;;6.88;6.15;;;;;;;;;;12546677;28;20040;-75
2022/01/25 03:24:04;;;;;;;6.28;5.78;;;;;;;;;;12546282;28;20041;-75
2022/01/25 03:30:06;;;;;;;;;;;;;;;;;;12547326;28;20451;-75
2022/01/25 03:36:08;;;;;;;6.55;5.95;;;;;;;;;;12545459;28;19908;-75
2022/01/25 03:42:11;;;;;;;6.63;6.03;;;;;;;;;;12546484;28;20577;-75
2022/01/25 03:54:15;;;;;;;6.20;5.72;;;;;;;;;;12546253;28;20041;-75
2022/01/25 04:00:17;;;;;;;5.88;5.38;;;;;;;;;;12544007;28;20048;-75
2022/01/25 04:06:20;;;;;;;5.82;5.32;;;;;;;;;;12545027;28;20036;-75
2022/01/25 04:12:22;;;;;;;5.80;5.30;;;;;;;;;;12527337;28;20045;-75
2022/01/25 04:18:46;;;;;;;6.03;5.43;;;;;;;;;;12543995;28;20029;-75
2022/01/25 04:25:06;;;;;;;6.30;5.70;;;;;;;;;;12543131;28;20048;-75
2022/01/25 04:31:07;;;;;;;6.03;5.53;;;;;;;;;;12543809;28;20052;-75
2022/01/25 04:49:35;;;;;;;5.78;5.30;;;;;;;;;;12543813;28;20057;-75
2022/01/25 04:55:46;;;;;;;6.03;5.53;;;;;;;;;;12542442;28;20044;-77
2022/01/25 05:07:54;;;;;;;7.90;7.30;;;;;;;;;;12708749;27;1295277;-74
2022/01/25 05:14:17;;;;;;;7.70;7.10;;;;;;;;;;12587380;28;20477;-74
2022/01/25 05:26:40;;;;;;;18.40;16.65;;;;;;;;;;12586406;28;20039;-75
2022/01/25 05:32:42;;;;;;;6.40;5.85;;;;;;;;;;12587432;28;20485;-74
2022/01/25 05:38:45;;;;;;;7.70;7.00;;;;;;;;;;12584916;28;20025;-75
2022/01/25 05:56:53;;;;;;;6.80;6.20;;;;;;;;;;12587162;28;20500;-75
2022/01/25 06:02:56;;;;;;;6.53;6.03;;;;;;;;;;12586372;28;20379;-74
2022/01/25 06:08:59;;;;;;;6.85;6.25;;;;;;;;;;12586515;28;20512;-75
2022/01/25 06:15:01;;;;;;;7.05;6.45;;;;;;;;;;12585933;28;20056;-74
2022/01/25 06:21:03;;;;;;;7.20;6.60;;;;;;;;;;12584537;28;20024;-76
2022/01/25 06:27:05;;;;;;;7.40;6.70;;;;;;;;;;12584227;28;20039;-75
2022/01/25 06:33:09;;;;;;;14.02;12.73;;;;;;;;;;12583771;28;20036;-77
2022/01/25 06:39:11;;;;;;;10.18;9.18;;;;;;;;;;12567138;28;20037;-75
2022/01/25 06:51:21;;;;;;;10.07;9.18;;;;;;;;;;12548497;28;20792;-74
2022/01/25 06:57:22;;;;;;;9.68;8.80;;;;;;;;;;12535349;28;20033;-75
2022/01/25 07:03:24;;;;;;;9.63;8.73;;;;;;;;;;12525423;28;20036;-76
2022/01/25 07:09:28;;;;;;;8.10;7.40;;;;;;;;;;12525873;28;20037;-78
2022/01/25 07:15:33;;;;;;;12.43;10.55;;;;;;;;;;12533419;28;20030;-75
2022/01/25 07:21:34;;;;;;;12.43;11.32;;;;;;;;;;12525793;28;20043;-75
2022/01/25 07:27:36;;;;;;;10.52;9.60;;;;;;;;;;12528573;28;20802;-76
2022/01/25 07:33:38;;;;;;;12.95;11.65;;;;;;;;;;12534150;28;20493;-78
2022/01/25 07:39:42;;;;;;;11.90;10.70;;;;;;;;;;12526594;28;20052;-75
2022/01/25 07:45:50;;;;;;;12.00;10.88;;;;;;;;;;12527422;28;20053;-76
2022/01/25 07:51:52;;;;;;;10.80;9.80;;;;;;;;;;12528292;28;20039;-77
2022/01/25 07:57:53;;;;;;;10.70;9.70;;;;;;;;;;12526955;28;20052;-76
2022/01/25 08:03:55;;;;;;;10.45;9.55;;;;;;;;;;12494866;28;20037;-76
2022/01/25 08:09:57;;;;;;;11.20;10.15;;;;;;;;;;12500344;28;20059;-77
2022/01/25 08:15:59;;;;;;;10.63;9.73;;;;;;;;;;12495048;28;20048;-76
2022/01/25 08:22:00;;;;;;;9.25;8.45;;;;;;;;;;12492779;28;20044;-75
2022/01/25 08:28:02;;;;;;;9.32;8.43;;;;;;;;;;12488639;28;20056;-77
2022/01/25 08:34:04;;;;;;;10.25;9.32;;;;;;;;;;12476529;28;20510;-78
2022/01/25 08:40:07;;;;;;;10.07;9.18;;;;;;;;;;12481874;28;20037;-78
2022/01/25 08:46:09;;;;;;;8.95;8.15;;;;;;;;;;12488732;28;20076;-78
2022/01/25 08:52:11;;;;;;;8.40;7.60;;;;;;;;;;12477414;28;20029;-78
2022/01/25 08:58:13;;;;;;;7.97;7.28;;;;;;;;;;12497114;28;20021;-78
2022/01/25 09:04:15;;;;;;;7.70;7.03;;;;;;;;;;12494412;28;20038;-77
2022/01/25 09:10:17;;;;;;;7.40;6.80;;;;;;;;;;12484283;28;20037;-77
2022/01/25 09:16:19;;;;;;;6.60;6.00;;;;;;;;;;12496447;28;20396;-76
2022/01/25 09:22:21;;;;;;;6.50;5.93;;;;;;;;;;12497787;28;20025;-76
2022/01/25 09:28:22;;;;;;;7.85;6.15;;;;;;;;;;12491499;28;20486;-77
2022/01/25 09:34:25;;;;;;;7.57;6.85;;;;;;;;;;12486502;28;20092;-78
2022/01/25 09:40:28;;;;;;;;;;;;;;;;;;12486705;28;20018;-76
2022/01/25 09:46:30;;;;;;;8.70;7.50;;;;;;;;;;12488940;28;19925;-78
2022/01/25 09:52:32;;;;;;;5.60;5.18;;;;;;;;;;12487982;28;20501;-79
2022/01/25 09:58:34;;;;;;;8.53;7.63;;;;;;;;;;12481031;28;20040;-79
2022/01/25 10:04:42;;;;;;;8.10;7.32;;;;;;;;;;12464870;28;20028;-78
2022/01/25 10:10:45;;;;;;;8.23;7.53;;;;;;;;;;12500563;28;20521;-77
2022/01/25 10:16:52;;;;;;;7.18;6.45;;;;;;;;;;12480795;28;20041;-77
2022/01/25 10:22:57;;;;;;;8.13;7.43;;;;;;;;;;12465218;28;20038;-78
2022/01/25 10:28:59;;;;;;;6.82;6.22;;;;;;;;;;12470092;28;20049;-78
2022/01/25 10:35:12;;;;;;;9.10;8.23;;;;;;;;;;12460140;28;20599;-76
2022/01/25 10:41:15;;;;;;;9.57;8.50;;;;;;;;;;12503885;28;20040;-77
2022/01/25 10:47:20;;;;;;;11.70;10.43;;;;;;;;;;12464805;28;20042;-76
2022/01/25 10:53:22;;;;;;;9.57;8.68;;;;;;;;;;12462861;28;20044;-77
2022/01/25 10:59:25;;;;;;;7.55;6.85;;;;;;;;;;12473216;28;20029;-77
2022/01/25 11:05:30;;;;;;;16.38;14.80;;;;;;;;;;12472684;28;20021;-77
2022/01/25 11:11:39;;;;;;;10.73;9.63;;;;;;;;;;12478130;28;20041;-78
2022/01/25 11:17:40;;;;;;;11.50;10.27;;;;;;;;;;12473055;28;20033;-77
2022/01/25 11:23:44;;;;;;;14.40;13.00;;;;;;;;;;12472450;28;20037;-77
2022/01/25 11:29:48;;;;;;;14.00;12.30;;;;;;;;;;12479134;28;20041;-78
2022/01/25 11:35:50;;;;;;;12.68;11.35;;;;;;;;;;12475933;28;20358;-76
2022/01/25 11:42:00;;;;;;;14.90;13.48;;;;;;;;;;12469521;28;20360;-77
2022/01/25 11:48:02;;;;;;;14.43;13.02;;;;;;;;;;12487676;28;20053;-77
2022/01/25 11:54:04;;;;;;;22.67;18.80;;;;;;;;;;12483901;28;20049;-78
2022/01/25 12:00:06;;;;;;;16.23;14.55;;;;;;;;;;12469179;28;20059;-78
2022/01/25 12:06:17;;;;;;;15.40;13.77;;;;;;;;;;12469559;28;20414;-78
2022/01/25 12:12:19;;;;;;;12.93;11.00;;;;;;;;;;12497142;28;20047;-78
2022/01/25 12:18:49;;;;;;;16.75;14.95;;;;;;;;;;12492644;28;21629;-77
2022/01/25 12:31:14;;;;;;;16.58;14.85;;;;;;;;;;12498079;28;20068;-77
2022/01/25 12:37:34;;;;;;;18.05;14.32;;;;;;;;;;12495747;28;20026;-77
2022/01/25 12:43:38;;;;;;;16.13;14.40;;;;;;;;;;12499292;28;20084;-77
2022/01/25 12:49:43;;;;;;;18.45;16.42;;;;;;;;;;12498555;28;20076;-77
2022/01/25 12:55:47;;;;;;;19.77;17.02;;;;;;;;;;12498394;28;20029;-77
2022/01/25 13:01:51;;;;;;;17.58;14.00;;;;;;;;;;12498564;28;20041;-77
2022/01/25 13:07:53;;;;;;;17.23;14.23;;;;;;;;;;12498033;28;20045;-77
2022/01/25 13:14:03;;;;;;;20.65;17.80;;;;;;;;;;12497613;28;20044;-78
2022/01/25 13:20:05;;;;;;;24.80;19.98;;;;;;;;;;12496844;28;20068;-77
2022/01/25 13:26:14;;;;;;;20.70;16.55;;;;;;;;;;12495684;28;20078;-77
2022/01/25 13:32:16;;;;;;;22.95;19.50;;;;;;;;;;12496519;28;20026;-77
2022/01/25 13:38:20;;;;;;;19.73;16.40;;;;;;;;;;12496617;28;20044;-76
2022/01/25 13:50:42;;;;;;;19.80;15.88;;;;;;;;;;12494680;28;20041;-77
2022/01/25 13:56:44;;;;;;;26.00;18.73;;;;;;;;;;12477852;28;20116;-76
2022/01/25 14:02:54;;;;;;;33.60;24.37;;;;;;;;;;12478084;28;20056;-76
2022/01/25 14:09:24;;;;;;;27.20;20.13;;;;;;;;;;12495745;28;20300;-77
2022/01/25 14:21:58;;;;;;;34.92;24.63;;;;;;;;;;12493778;28;20116;-76
2022/01/25 14:28:01;;;;;;;39.72;29.77;;;;;;;;;;12493745;28;20041;-77
2022/01/25 14:34:05;;;;;;;;;;;;;;;;;;12495043;28;20041;-77
2022/01/25 14:40:11;;;;;;;33.25;25.20;;;;;;;;;;12492977;28;19909;-77
2022/01/25 14:46:14;;;;;;;39.40;30.02;;;;;;;;;;12492413;28;20045;-76
2022/01/25 14:52:19;;;;;;;37.80;28.67;;;;;;;;;;12493661;28;20044;-76
2022/01/25 14:59:22;;;;;;;40.50;28.60;;;;;;;;;;12494959;28;20482;-75
2022/01/25 15:04:44;;;;;;;35.20;25.65;;;;;;;;;;12491875;28;20056;-76
2022/01/25 15:10:47;;;;;;;27.75;20.67;;;;;;;;;;12481362;28;20041;-77
2022/01/25 15:16:49;;;;;;;27.70;20.75;;;;;;;;;;12501992;28;20038;-76
2022/01/25 15:22:51;;;;;;;33.57;23.87;;;;;;;;;;12485316;28;20382;-77
2022/01/25 15:28:56;;;;;;;30.77;23.27;;;;;;;;;;12501404;28;20044;-76
2022/01/25 15:34:58;;;;;;;32.90;22.35;;;;;;;;;;12501361;28;20044;-76
2022/01/25 15:41:07;;;;;;;28.33;19.27;;;;;;;;;;12500493;28;20048;-76
2022/01/25 15:47:10;;;;;;;26.88;20.83;;;;;;;;;;12500800;28;20521;-76
2022/01/25 15:53:11;;;;;;;25.92;19.23;;;;;;;;;;12484325;28;20036;-76
2022/01/25 15:59:17;;;;;;;25.98;19.50;;;;;;;;;;12501452;28;20040;-76
2022/01/25 16:05:21;;;;;;;25.23;18.70;;;;;;;;;;12501788;28;20329;-77
2022/01/25 16:11:25;;;;;;;25.80;18.13;;;;;;;;;;12500424;28;20490;-76
2022/01/25 16:17:27;;;;;;;29.73;20.58;;;;;;;;;;12499810;28;20045;-76
2022/01/25 16:23:29;;;;;;;21.95;17.15;;;;;;;;;;12498440;28;20038;-76
2022/01/25 16:29:33;;;;;;;29.83;21.73;;;;;;;;;;12501628;28;20390;-75
2022/01/25 16:35:34;;;;;;;31.80;22.95;;;;;;;;;;12500862;28;20048;-77
2022/01/25 16:41:36;;;;;;;30.42;21.65;;;;;;;;;;12500594;28;20116;-76
2022/01/25 16:47:39;;;;;;;29.03;20.57;;;;;;;;;;12500433;28;20053;-77
2022/01/25 16:53:45;;;;;;;33.47;23.65;;;;;;;;;;12500426;28;20033;-77
2022/01/25 16:59:47;;;;;;;26.15;19.42;;;;;;;;;;12496871;28;20026;-77
2022/01/25 17:05:48;;;;;;;36.47;27.05;;;;;;;;;;12497273;28;20029;-77
2022/01/25 17:11:53;;;;;;;34.83;25.90;;;;;;;;;;12497858;28;20371;-77
2022/01/25 17:17:56;;;;;;;41.83;30.17;;;;;;;;;;12497549;28;20040;-77
2022/01/25 17:23:58;;;;;;;43.03;31.13;;;;;;;;;;12479706;28;20109;-77
2022/01/25 17:29:59;;;;;;;44.88;33.33;;;;;;;;;;12495187;28;20045;-77
2022/01/25 17:36:02;;;;;;;47.85;34.72;;;;;;;;;;12496617;28;20098;-77
2022/01/25 17:42:03;;;;;;;43.22;32.00;;;;;;;;;;12496648;28;20033;-77
2022/01/25 17:48:05;;;;;;;46.20;32.75;;;;;;;;;;12496309;28;20064;-76
2022/01/25 17:54:08;;;;;;;48.38;34.03;;;;;;;;;;12494921;28;20034;-76
2022/01/25 18:00:11;;;;;;;40.78;29.15;;;;;;;;;;12495793;28;20033;-76
2022/01/25 18:06:15;;;;;;;39.95;29.45;;;;;;;;;;12494115;28;20040;-76
2022/01/25 18:12:17;;;;;;;40.30;30.02;;;;;;;;;;12496019;28;20038;-76
2022/01/25 18:18:19;;;;;;;37.27;27.60;;;;;;;;;;12494273;28;20052;-76
2022/01/25 18:24:26;;;;;;;40.33;29.27;;;;;;;;;;12494431;28;20025;-76
2022/01/25 18:30:28;;;;;;;47.97;31.65;;;;;;;;;;12476893;28;20046;-76
2022/01/25 18:36:30;;;;;;;39.95;29.40;;;;;;;;;;12493156;28;20029;-77
2022/01/25 18:42:33;;;;;;;37.10;28.42;;;;;;;;;;12492294;28;20034;-77
2022/01/25 18:48:36;;;;;;;48.50;34.38;;;;;;;;;;12492134;28;20057;-77
2022/01/25 18:54:39;;;;;;;39.97;30.88;;;;;;;;;;12493633;28;20497;-77
2022/01/25 19:00:41;;;;;;;43.93;33.03;;;;;;;;;;12491993;28;20033;-76
2022/01/25 19:06:43;;;;;;;45.03;33.53;;;;;;;;;;12493242;28;20040;-76
2022/01/25 19:12:44;;;;;;;45.63;34.72;;;;;;;;;;12491633;28;20029;-75
2022/01/25 19:18:46;;;;;;;45.80;33.58;;;;;;;;;;12492664;28;20060;-76
2022/01/25 19:24:48;;;;;;;44.20;31.95;;;;;;;;;;12493131;28;20406;-76
2022/01/25 19:30:50;;;;;;;39.17;29.77;;;;;;;;;;12492695;28;20045;-77
2022/01/25 19:36:51;;;;;;;41.60;31.13;;;;;;;;;;12492798;28;20025;-76
2022/01/25 19:42:53;;;;;;;47.92;34.50;;;;;;;;;;12491432;28;20033;-76
2022/01/25 19:49:00;;;;;;;40.72;31.33;;;;;;;;;;12492023;28;20049;-76
2022/01/25 19:55:08;;;;;;;51.55;37.58;;;;;;;;;;12494909;28;20036;-76
2022/01/25 20:01:10;;;;;;;32.63;22.63;;;;;;;;;;12483548;28;20034;-76
2022/01/25 20:07:12;;;;;;;46.07;32.40;;;;;;;;;;12499942;28;20041;-76
2022/01/25 20:13:14;;;;;;;49.30;36.95;;;;;;;;;;12499493;28;20033;-77
2022/01/25 20:19:16;;;;;;;41.88;30.40;;;;;;;;;;12483411;28;20038;-77
2022/01/25 20:25:33;;;;;;;38.10;26.40;;;;;;;;;;12498725;28;20042;-77
2022/01/25 20:31:36;;;;;;;48.20;32.78;;;;;;;;;;12498509;28;20045;-76
2022/01/25 20:37:38;;;;;;;42.00;30.52;;;;;;;;;;12499426;28;20104;-76
2022/01/25 20:43:40;;;;;;;46.42;33.08;;;;;;;;;;12499204;28;20049;-76
2022/01/25 20:49:43;;;;;;;46.25;34.38;;;;;;;;;;12498865;28;20060;-77
2022/01/25 20:55:45;;;;;;;50.95;36.38;;;;;;;;;;12497639;28;20486;-76
2022/01/25 21:01:48;;;;;;;46.80;35.03;;;;;;;;;;12497425;28;20028;-76
2022/01/25 21:07:49;;;;;;;;;;;;;;;;;;12497434;28;20046;-76
2022/01/25 21:13:52;;;;;;;45.55;32.42;;;;;;;;;;12496379;28;19916;-76
2022/01/25 21:19:54;;;;;;;45.03;32.87;;;;;;;;;;12498717;28;20037;-76
2022/01/25 21:25:56;;;;;;;43.05;31.17;;;;;;;;;;12496436;28;20030;-77
2022/01/25 21:31:58;;;;;;;54.22;36.17;;;;;;;;;;12496693;28;20033;-76
2022/01/25 21:37:59;;;;;;;56.08;38.00;;;;;;;;;;12497079;28;20049;-76
2022/01/25 21:44:03;;;;;;;51.85;35.95;;;;;;;;;;12479237;28;20044;-76
2022/01/25 21:50:05;;;;;;;49.80;34.33;;;;;;;;;;12494530;28;20092;-76
2022/01/25 21:56:07;;;;;;;47.20;33.38;;;;;;;;;;12496162;28;20030;-76
2022/01/25 22:02:10;;;;;;;43.80;30.70;;;;;;;;;;12496675;28;20048;-76
2022/01/25 22:08:19;;;;;;;45.30;29.95;;;;;;;;;;12496212;28;20072;-76
2022/01/25 22:14:28;;;;;;;60.70;40.72;;;;;;;;;;12494957;28;20486;-76
2022/01/25 22:20:32;;;;;;;54.08;37.88;;;;;;;;;;12496252;28;20038;-76
2022/01/25 22:26:34;;;;;;;53.30;36.72;;;;;;;;;;12495231;28;20031;-75
2022/01/25 22:32:36;;;;;;;50.38;36.75;;;;;;;;;;12495046;28;20045;-77
2022/01/25 22:38:39;;;;;;;53.53;35.50;;;;;;;;;;12494789;28;20029;-75
2022/01/25 22:44:41;;;;;;;64.88;41.50;;;;;;;;;;12493173;28;20064;-75
2022/01/25 22:50:44;;;;;;;56.65;38.72;;;;;;;;;;12492778;28;20053;-75
2022/01/25 22:56:46;;;;;;;52.22;34.17;;;;;;;;;;12494650;28;20040;-75
2022/01/25 23:02:47;;;;;;;76.22;48.58;;;;;;;;;;12494180;28;20478;-76
2022/01/25 23:08:49;;;;;;;73.90;46.78;;;;;;;;;;12492530;28;20490;-76
2022/01/25 23:14:59;;;;;;;70.72;44.80;;;;;;;;;;12494116;28;20394;-76
2022/01/25 23:21:00;;;;;;;66.28;43.67;;;;;;;;;;12493134;28;20045;-76
2022/01/25 23:27:02;;;;;;;53.88;36.33;;;;;;;;;;12493811;28;20505;-76
2022/01/25 23:33:18;;;;;;;53.67;35.45;;;;;;;;;;12499910;28;20513;-76
2022/01/25 23:39:29;;;;;;;54.17;34.28;;;;;;;;;;12501912;28;20045;-76
2022/01/25 23:45:30;;;;;;;54.55;35.38;;;;;;;;;;12501977;28;20493;-76
